Terminal Aerodrome Forecast
Issued by NWS

Home | Current Version | Previous Version | Text Only | Print | Product List | Glossary On
Versions: 1 2 3 4 5 6 7 8 9 10 11 12 13 14 15
000
FTUS43 KDLH 280800 AAA
TAFBRD
TAF AMD
KBRD 280837Z 2809/2906 36003KT P6SM OVC110 WS010/18030KT
     FM281000 30005KT P6SM OVC080
     FM281400 34010KT P6SM SCT030 OVC050
     FM281800 35012KT P6SM SCT050
     FM290000 35005KT P6SM SKC=

USA.gov is the U.S. government's official web portal to all federal, state and local government web resources and services.